sensor_id;sensor_type;location;lat;lon;timestamp;P1;durP1;ratioP1;P2;durP2;ratioP2
23444;SDS011;11895;48.738;9.320;2023-02-28T00:01:27;4.85;;;2.90;;
23444;SDS011;11895;48.738;9.320;2023-02-28T00:03:56;6.50;;;2.85;;
23444;SDS011;11895;48.738;9.320;2023-02-28T00:06:28;5.10;;;3.22;;
23444;SDS011;11895;48.738;9.320;2023-02-28T00:08:56;6.70;;;2.85;;
23444;SDS011;11895;48.738;9.320;2023-02-28T00:11:24;8.07;;;3.25;;
23444;SDS011;11895;48.738;9.320;2023-02-28T00:13:52;7.07;;;3.20;;
23444;SDS011;11895;48.738;9.320;2023-02-28T00:16:22;5.85;;;2.53;;
23444;SDS011;11895;48.738;9.320;2023-02-28T00:18:50;6.03;;;3.05;;
23444;SDS011;11895;48.738;9.320;2023-02-28T00:21:18;4.85;;;2.50;;
23444;SDS011;11895;48.738;9.320;2023-02-28T00:23:47;6.00;;;2.80;;
23444;SDS011;11895;48.738;9.320;2023-02-28T00:26:15;5.95;;;3.20;;
23444;SDS011;11895;48.738;9.320;2023-02-28T00:28:46;8.50;;;3.30;;
23444;SDS011;11895;48.738;9.320;2023-02-28T00:31:14;5.33;;;2.80;;
23444;SDS011;11895;48.738;9.320;2023-02-28T00:33:42;6.40;;;2.67;;
23444;SDS011;11895;48.738;9.320;2023-02-28T00:36:10;5.30;;;2.80;;
23444;SDS011;11895;48.738;9.320;2023-02-28T00:38:38;8.93;;;2.75;;
23444;SDS011;11895;48.738;9.320;2023-02-28T00:41:07;4.72;;;2.58;;
23444;SDS011;11895;48.738;9.320;2023-02-28T00:43:36;4.22;;;2.60;;
23444;SDS011;11895;48.738;9.320;2023-02-28T00:46:05;8.20;;;2.83;;
23444;SDS011;11895;48.738;9.320;2023-02-28T00:48:34;6.35;;;3.00;;
23444;SDS011;11895;48.738;9.320;2023-02-28T00:51:03;6.78;;;2.65;;
23444;SDS011;11895;48.738;9.320;2023-02-28T00:53:31;6.83;;;3.17;;
23444;SDS011;11895;48.738;9.320;2023-02-28T00:56:01;8.68;;;3.15;;
23444;SDS011;11895;48.738;9.320;2023-02-28T01:00:58;5.20;;;3.17;;
23444;SDS011;11895;48.738;9.320;2023-02-28T01:03:26;6.10;;;2.85;;
23444;SDS011;11895;48.738;9.320;2023-02-28T01:05:54;7.25;;;3.17;;
23444;SDS011;11895;48.738;9.320;2023-02-28T01:08:22;12.95;;;5.32;;
23444;SDS011;11895;48.738;9.320;2023-02-28T01:10:50;16.02;;;5.55;;
23444;SDS011;11895;48.738;9.320;2023-02-28T01:13:18;24.92;;;9.30;;
23444;SDS011;11895;48.738;9.320;2023-02-28T01:15:50;6.30;;;3.67;;
23444;SDS011;11895;48.738;9.320;2023-02-28T01:18:21;7.90;;;3.30;;
23444;SDS011;11895;48.738;9.320;2023-02-28T01:20:49;7.40;;;3.30;;
23444;SDS011;11895;48.738;9.320;2023-02-28T01:23:19;6.78;;;2.85;;
23444;SDS011;11895;48.738;9.320;2023-02-28T01:25:49;7.47;;;3.92;;
23444;SDS011;11895;48.738;9.320;2023-02-28T01:30:49;8.25;;;3.15;;
23444;SDS011;11895;48.738;9.320;2023-02-28T01:33:18;8.52;;;3.42;;
23444;SDS011;11895;48.738;9.320;2023-02-28T01:35:45;6.40;;;3.53;;
23444;SDS011;11895;48.738;9.320;2023-02-28T01:38:13;6.95;;;3.08;;
23444;SDS011;11895;48.738;9.320;2023-02-28T01:40:48;7.72;;;3.83;;
23444;SDS011;11895;48.738;9.320;2023-02-28T01:45:59;8.73;;;3.28;;
23444;SDS011;11895;48.738;9.320;2023-02-28T01:48:34;7.25;;;3.00;;
23444;SDS011;11895;48.738;9.320;2023-02-28T01:51:15;5.75;;;3.10;;
23444;SDS011;11895;48.738;9.320;2023-02-28T01:53:55;6.43;;;3.50;;
23444;SDS011;11895;48.738;9.320;2023-02-28T01:56:30;5.80;;;3.20;;
23444;SDS011;11895;48.738;9.320;2023-02-28T01:59:04;7.85;;;3.15;;
23444;SDS011;11895;48.738;9.320;2023-02-28T02:01:32;5.50;;;3.13;;
23444;SDS011;11895;48.738;9.320;2023-02-28T02:04:03;5.22;;;3.13;;
23444;SDS011;11895;48.738;9.320;2023-02-28T02:06:34;8.68;;;3.92;;
23444;SDS011;11895;48.738;9.320;2023-02-28T02:09:09;7.47;;;4.53;;
23444;SDS011;11895;48.738;9.320;2023-02-28T02:11:39;8.65;;;4.20;;
23444;SDS011;11895;48.738;9.320;2023-02-28T02:23:08;13.13;;;4.25;;
23444;SDS011;11895;48.738;9.320;2023-02-28T02:43:26;6.32;;;3.10;;
23444;SDS011;11895;48.738;9.320;2023-02-28T02:46:04;6.82;;;3.35;;
23444;SDS011;11895;48.738;9.320;2023-02-28T02:49:00;7.85;;;3.75;;
23444;SDS011;11895;48.738;9.320;2023-02-28T02:51:33;6.32;;;3.67;;
23444;SDS011;11895;48.738;9.320;2023-02-28T02:54:05;6.63;;;4.05;;
23444;SDS011;11895;48.738;9.320;2023-02-28T02:56:57;6.10;;;3.47;;
23444;SDS011;11895;48.738;9.320;2023-02-28T02:59:31;5.60;;;3.50;;
23444;SDS011;11895;48.738;9.320;2023-02-28T03:02:02;7.18;;;3.60;;
23444;SDS011;11895;48.738;9.320;2023-02-28T03:04:38;5.15;;;3.35;;
23444;SDS011;11895;48.738;9.320;2023-02-28T03:07:17;7.50;;;4.10;;
23444;SDS011;11895;48.738;9.320;2023-02-28T03:09:51;10.43;;;4.50;;
23444;SDS011;11895;48.738;9.320;2023-02-28T03:12:21;7.05;;;4.32;;
23444;SDS011;11895;48.738;9.320;2023-02-28T03:15:16;8.23;;;3.70;;
23444;SDS011;11895;48.738;9.320;2023-02-28T03:18:07;5.22;;;3.35;;
23444;SDS011;11895;48.738;9.320;2023-02-28T03:21:08;9.90;;;4.50;;
23444;SDS011;11895;48.738;9.320;2023-02-28T03:24:39;6.95;;;4.07;;
23444;SDS011;11895;48.738;9.320;2023-02-28T03:26:36;8.75;;;3.78;;
23444;SDS011;11895;48.738;9.320;2023-02-28T03:31:50;7.72;;;4.10;;
23444;SDS011;11895;48.738;9.320;2023-02-28T03:34:37;6.25;;;3.58;;
23444;SDS011;11895;48.738;9.320;2023-02-28T03:42:20;6.90;;;3.65;;
23444;SDS011;11895;48.738;9.320;2023-02-28T03:47:30;8.63;;;4.10;;
23444;SDS011;11895;48.738;9.320;2023-02-28T03:50:15;5.53;;;3.72;;
23444;SDS011;11895;48.738;9.320;2023-02-28T03:55:38;7.22;;;3.80;;
23444;SDS011;11895;48.738;9.320;2023-02-28T03:58:16;10.80;;;4.78;;
23444;SDS011;11895;48.738;9.320;2023-02-28T04:01:09;7.60;;;4.73;;
23444;SDS011;11895;48.738;9.320;2023-02-28T04:07:01;10.43;;;5.60;;
23444;SDS011;11895;48.738;9.320;2023-02-28T04:09:34;7.00;;;4.45;;
23444;SDS011;11895;48.738;9.320;2023-02-28T04:12:02;9.07;;;4.78;;
23444;SDS011;11895;48.738;9.320;2023-02-28T04:14:30;7.50;;;4.77;;
23444;SDS011;11895;48.738;9.320;2023-02-28T04:16:57;7.53;;;4.53;;
23444;SDS011;11895;48.738;9.320;2023-02-28T04:19:25;8.35;;;4.25;;
23444;SDS011;11895;48.738;9.320;2023-02-28T04:21:53;9.80;;;4.28;;
23444;SDS011;11895;48.738;9.320;2023-02-28T04:24:22;7.97;;;4.22;;
23444;SDS011;11895;48.738;9.320;2023-02-28T04:26:53;9.88;;;5.00;;
23444;SDS011;11895;48.738;9.320;2023-02-28T04:31:59;11.85;;;4.80;;
23444;SDS011;11895;48.738;9.320;2023-02-28T04:34:29;9.82;;;5.03;;
23444;SDS011;11895;48.738;9.320;2023-02-28T04:36:58;8.43;;;4.72;;
23444;SDS011;11895;48.738;9.320;2023-02-28T04:39:38;9.50;;;4.90;;
23444;SDS011;11895;48.738;9.320;2023-02-28T04:42:08;8.65;;;4.82;;
23444;SDS011;11895;48.738;9.320;2023-02-28T04:44:38;10.73;;;4.90;;
23444;SDS011;11895;48.738;9.320;2023-02-28T04:47:05;9.60;;;5.00;;
23444;SDS011;11895;48.738;9.320;2023-02-28T04:49:33;7.90;;;4.72;;
23444;SDS011;11895;48.738;9.320;2023-02-28T04:52:01;9.52;;;4.70;;
23444;SDS011;11895;48.738;9.320;2023-02-28T04:54:29;7.47;;;4.45;;
23444;SDS011;11895;48.738;9.320;2023-02-28T04:56:56;7.60;;;4.40;;
23444;SDS011;11895;48.738;9.320;2023-02-28T04:59:24;7.45;;;4.43;;
23444;SDS011;11895;48.738;9.320;2023-02-28T05:01:51;9.43;;;4.95;;
23444;SDS011;11895;48.738;9.320;2023-02-28T05:04:19;7.45;;;4.82;;
23444;SDS011;11895;48.738;9.320;2023-02-28T05:06:47;7.88;;;4.35;;
23444;SDS011;11895;48.738;9.320;2023-02-28T05:09:39;11.43;;;5.50;;
23444;SDS011;11895;48.738;9.320;2023-02-28T05:12:08;9.65;;;5.38;;
23444;SDS011;11895;48.738;9.320;2023-02-28T05:14:39;7.88;;;4.97;;
23444;SDS011;11895;48.738;9.320;2023-02-28T05:17:08;10.75;;;5.28;;
23444;SDS011;11895;48.738;9.320;2023-02-28T05:19:36;10.18;;;5.22;;
23444;SDS011;11895;48.738;9.320;2023-02-28T05:22:04;8.25;;;4.80;;
23444;SDS011;11895;48.738;9.320;2023-02-28T05:24:40;12.43;;;5.35;;
23444;SDS011;11895;48.738;9.320;2023-02-28T05:27:08;10.75;;;5.43;;
23444;SDS011;11895;48.738;9.320;2023-02-28T05:29:36;10.85;;;5.15;;
23444;SDS011;11895;48.738;9.320;2023-02-28T05:32:09;10.13;;;5.28;;
23444;SDS011;11895;48.738;9.320;2023-02-28T05:34:38;9.52;;;4.95;;
23444;SDS011;11895;48.738;9.320;2023-02-28T05:37:07;11.38;;;5.38;;
23444;SDS011;11895;48.738;9.320;2023-02-28T05:39:39;10.50;;;5.03;;
23444;SDS011;11895;48.738;9.320;2023-02-28T05:42:07;10.13;;;5.43;;
23444;SDS011;11895;48.738;9.320;2023-02-28T05:44:35;10.18;;;5.43;;
23444;SDS011;11895;48.738;9.320;2023-02-28T05:47:03;10.30;;;5.60;;
23444;SDS011;11895;48.738;9.320;2023-02-28T05:49:30;8.93;;;5.65;;
23444;SDS011;11895;48.738;9.320;2023-02-28T05:51:58;10.70;;;5.35;;
23444;SDS011;11895;48.738;9.320;2023-02-28T05:54:26;13.35;;;6.13;;
23444;SDS011;11895;48.738;9.320;2023-02-28T05:56:53;10.27;;;5.72;;
23444;SDS011;11895;48.738;9.320;2023-02-28T05:59:21;10.77;;;5.15;;
23444;SDS011;11895;48.738;9.320;2023-02-28T06:01:49;8.82;;;5.57;;
23444;SDS011;11895;48.738;9.320;2023-02-28T06:04:18;9.27;;;5.95;;
23444;SDS011;11895;48.738;9.320;2023-02-28T06:06:57;9.68;;;5.68;;
23444;SDS011;11895;48.738;9.320;2023-02-28T06:09:25;12.93;;;5.90;;
23444;SDS011;11895;48.738;9.320;2023-02-28T06:11:53;11.10;;;5.80;;
23444;SDS011;11895;48.738;9.320;2023-02-28T06:14:20;10.95;;;6.50;;
23444;SDS011;11895;48.738;9.320;2023-02-28T06:16:48;11.80;;;6.38;;
23444;SDS011;11895;48.738;9.320;2023-02-28T06:19:16;14.38;;;6.63;;
23444;SDS011;11895;48.738;9.320;2023-02-28T06:21:44;12.70;;;6.60;;
23444;SDS011;11895;48.738;9.320;2023-02-28T06:24:11;15.13;;;6.88;;
23444;SDS011;11895;48.738;9.320;2023-02-28T06:26:39;11.25;;;6.50;;
23444;SDS011;11895;48.738;9.320;2023-02-28T06:29:07;12.43;;;6.38;;
23444;SDS011;11895;48.738;9.320;2023-02-28T06:31:34;9.85;;;6.28;;
23444;SDS011;11895;48.738;9.320;2023-02-28T06:34:02;12.32;;;6.68;;
23444;SDS011;11895;48.738;9.320;2023-02-28T06:36:30;10.40;;;6.45;;
23444;SDS011;11895;48.738;9.320;2023-02-28T06:38:57;13.35;;;7.10;;
23444;SDS011;11895;48.738;9.320;2023-02-28T06:41:25;10.63;;;6.68;;
23444;SDS011;11895;48.738;9.320;2023-02-28T06:43:54;10.40;;;6.50;;
23444;SDS011;11895;48.738;9.320;2023-02-28T06:46:22;11.65;;;6.82;;
23444;SDS011;11895;48.738;9.320;2023-02-28T06:48:50;9.45;;;6.32;;
23444;SDS011;11895;48.738;9.320;2023-02-28T06:51:19;13.40;;;6.80;;
23444;SDS011;11895;48.738;9.320;2023-02-28T06:53:49;14.68;;;7.32;;
23444;SDS011;11895;48.738;9.320;2023-02-28T06:56:18;11.05;;;6.90;;
23444;SDS011;11895;48.738;9.320;2023-02-28T07:01:16;13.43;;;7.00;;
23444;SDS011;11895;48.738;9.320;2023-02-28T07:06:13;13.82;;;7.38;;
23444;SDS011;11895;48.738;9.320;2023-02-28T07:08:44;14.77;;;7.13;;
23444;SDS011;11895;48.738;9.320;2023-02-28T07:11:12;13.55;;;7.30;;
23444;SDS011;11895;48.738;9.320;2023-02-28T07:13:40;18.23;;;8.07;;
23444;SDS011;11895;48.738;9.320;2023-02-28T07:16:09;11.50;;;7.00;;
23444;SDS011;11895;48.738;9.320;2023-02-28T07:18:37;15.80;;;8.00;;
23444;SDS011;11895;48.738;9.320;2023-02-28T07:21:06;12.45;;;7.78;;
23444;SDS011;11895;48.738;9.320;2023-02-28T07:23:37;14.48;;;7.82;;
23444;SDS011;11895;48.738;9.320;2023-02-28T07:26:05;11.93;;;7.22;;
23444;SDS011;11895;48.738;9.320;2023-02-28T07:28:37;13.05;;;7.47;;
23444;SDS011;11895;48.738;9.320;2023-02-28T07:31:06;14.88;;;9.05;;
23444;SDS011;11895;48.738;9.320;2023-02-28T07:33:35;15.55;;;8.10;;
23444;SDS011;11895;48.738;9.320;2023-02-28T07:36:03;13.80;;;8.00;;
23444;SDS011;11895;48.738;9.320;2023-02-28T07:38:35;13.15;;;7.72;;
23444;SDS011;11895;48.738;9.320;2023-02-28T07:43:32;13.15;;;7.50;;
23444;SDS011;11895;48.738;9.320;2023-02-28T07:46:07;16.20;;;8.57;;
23444;SDS011;11895;48.738;9.320;2023-02-28T07:48:38;13.75;;;7.38;;
23444;SDS011;11895;48.738;9.320;2023-02-28T07:51:06;15.27;;;8.13;;
23444;SDS011;11895;48.738;9.320;2023-02-28T07:53:33;15.88;;;8.40;;
23444;SDS011;11895;48.738;9.320;2023-02-28T07:56:01;11.93;;;8.05;;
23444;SDS011;11895;48.738;9.320;2023-02-28T07:58:30;12.60;;;7.85;;
23444;SDS011;11895;48.738;9.320;2023-02-28T08:01:04;15.43;;;8.57;;
23444;SDS011;11895;48.738;9.320;2023-02-28T08:03:37;13.40;;;7.85;;
23444;SDS011;11895;48.738;9.320;2023-02-28T08:06:13;11.52;;;7.47;;
23444;SDS011;11895;48.738;9.320;2023-02-28T08:08:49;13.00;;;8.30;;
23444;SDS011;11895;48.738;9.320;2023-02-28T08:11:17;13.00;;;7.50;;
23444;SDS011;11895;48.738;9.320;2023-02-28T08:13:45;16.45;;;8.23;;
23444;SDS011;11895;48.738;9.320;2023-02-28T08:16:13;14.85;;;8.60;;
23444;SDS011;11895;48.738;9.320;2023-02-28T08:18:51;14.77;;;7.90;;
23444;SDS011;11895;48.738;9.320;2023-02-28T08:21:20;12.15;;;7.72;;
23444;SDS011;11895;48.738;9.320;2023-02-28T08:23:48;16.17;;;8.15;;
23444;SDS011;11895;48.738;9.320;2023-02-28T08:26:17;12.73;;;7.40;;
23444;SDS011;11895;48.738;9.320;2023-02-28T08:28:46;12.07;;;7.97;;
23444;SDS011;11895;48.738;9.320;2023-02-28T08:31:14;15.02;;;7.95;;
23444;SDS011;11895;48.738;9.320;2023-02-28T08:33:43;14.23;;;8.60;;
23444;SDS011;11895;48.738;9.320;2023-02-28T08:36:12;13.52;;;7.80;;
23444;SDS011;11895;48.738;9.320;2023-02-28T08:38:40;13.15;;;7.97;;
23444;SDS011;11895;48.738;9.320;2023-02-28T08:41:09;14.05;;;7.93;;
23444;SDS011;11895;48.738;9.320;2023-02-28T08:43:39;15.43;;;7.70;;
23444;SDS011;11895;48.738;9.320;2023-02-28T08:46:08;15.77;;;8.43;;
23444;SDS011;11895;48.738;9.320;2023-02-28T08:48:39;13.90;;;7.70;;
23444;SDS011;11895;48.738;9.320;2023-02-28T08:51:09;25.30;;;9.90;;
23444;SDS011;11895;48.738;9.320;2023-02-28T08:53:42;14.02;;;8.40;;
23444;SDS011;11895;48.738;9.320;2023-02-28T08:56:16;14.60;;;8.60;;
23444;SDS011;11895;48.738;9.320;2023-02-28T08:58:44;13.10;;;8.18;;
23444;SDS011;11895;48.738;9.320;2023-02-28T09:01:20;13.23;;;8.30;;
23444;SDS011;11895;48.738;9.320;2023-02-28T09:03:54;14.60;;;8.73;;
23444;SDS011;11895;48.738;9.320;2023-02-28T09:06:24;18.50;;;9.25;;
23444;SDS011;11895;48.738;9.320;2023-02-28T09:08:56;17.20;;;8.25;;
23444;SDS011;11895;48.738;9.320;2023-02-28T09:11:25;13.30;;;7.75;;
23444;SDS011;11895;48.738;9.320;2023-02-28T09:13:54;14.98;;;8.50;;
23444;SDS011;11895;48.738;9.320;2023-02-28T09:16:28;17.00;;;8.75;;
23444;SDS011;11895;48.738;9.320;2023-02-28T09:18:59;14.55;;;8.32;;
23444;SDS011;11895;48.738;9.320;2023-02-28T09:21:28;12.82;;;8.38;;
23444;SDS011;11895;48.738;9.320;2023-02-28T09:23:56;20.27;;;9.02;;
23444;SDS011;11895;48.738;9.320;2023-02-28T09:26:24;16.20;;;8.88;;
23444;SDS011;11895;48.738;9.320;2023-02-28T09:29:08;14.27;;;8.88;;
23444;SDS011;11895;48.738;9.320;2023-02-28T09:34:05;13.32;;;8.25;;
23444;SDS011;11895;48.738;9.320;2023-02-28T09:36:33;12.60;;;8.30;;
23444;SDS011;11895;48.738;9.320;2023-02-28T09:39:12;12.37;;;8.17;;
23444;SDS011;11895;48.738;9.320;2023-02-28T09:41:43;14.47;;;8.47;;
23444;SDS011;11895;48.738;9.320;2023-02-28T09:47:35;15.07;;;7.95;;
23444;SDS011;11895;48.738;9.320;2023-02-28T09:52:54;13.65;;;9.20;;
23444;SDS011;11895;48.738;9.320;2023-02-28T09:55:37;15.20;;;8.32;;
23444;SDS011;11895;48.738;9.320;2023-02-28T09:58:16;14.40;;;8.82;;
23444;SDS011;11895;48.738;9.320;2023-02-28T10:00:54;16.33;;;9.27;;
23444;SDS011;11895;48.738;9.320;2023-02-28T10:03:36;15.65;;;7.90;;
23444;SDS011;11895;48.738;9.320;2023-02-28T10:11:32;15.63;;;8.65;;
23444;SDS011;11895;48.738;9.320;2023-02-28T10:14:04;19.63;;;9.18;;
23444;SDS011;11895;48.738;9.320;2023-02-28T10:16:50;16.37;;;8.23;;
23444;SDS011;11895;48.738;9.320;2023-02-28T10:19:33;11.02;;;8.27;;
23444;SDS011;11895;48.738;9.320;2023-02-28T10:22:39;12.73;;;8.15;;
23444;SDS011;11895;48.738;9.320;2023-02-28T10:25:22;14.02;;;8.38;;
23444;SDS011;11895;48.738;9.320;2023-02-28T10:28:00;13.50;;;8.23;;
23444;SDS011;11895;48.738;9.320;2023-02-28T10:30:41;14.82;;;9.18;;
23444;SDS011;11895;48.738;9.320;2023-02-28T10:33:19;14.40;;;8.77;;
23444;SDS011;11895;48.738;9.320;2023-02-28T10:35:57;18.00;;;8.38;;
23444;SDS011;11895;48.738;9.320;2023-02-28T10:38:27;14.48;;;8.60;;
23444;SDS011;11895;48.738;9.320;2023-02-28T10:41:04;13.63;;;8.95;;
23444;SDS011;11895;48.738;9.320;2023-02-28T10:43:36;13.32;;;8.45;;
23444;SDS011;11895;48.738;9.320;2023-02-28T10:48:41;13.00;;;8.32;;
23444;SDS011;11895;48.738;9.320;2023-02-28T10:51:27;18.15;;;8.65;;
23444;SDS011;11895;48.738;9.320;2023-02-28T10:56:54;13.57;;;8.38;;
23444;SDS011;11895;48.738;9.320;2023-02-28T11:02:08;13.25;;;8.57;;
23444;SDS011;11895;48.738;9.320;2023-02-28T11:05:21;12.57;;;8.35;;
23444;SDS011;11895;48.738;9.320;2023-02-28T11:08:16;13.02;;;7.93;;
23444;SDS011;11895;48.738;9.320;2023-02-28T11:10:44;14.10;;;8.98;;
23444;SDS011;11895;48.738;9.320;2023-02-28T11:13:21;14.90;;;8.63;;
23444;SDS011;11895;48.738;9.320;2023-02-28T11:15:57;14.20;;;8.45;;
23444;SDS011;11895;48.738;9.320;2023-02-28T11:18:38;11.85;;;8.13;;
23444;SDS011;11895;48.738;9.320;2023-02-28T11:21:16;14.68;;;8.18;;
23444;SDS011;11895;48.738;9.320;2023-02-28T11:23:54;14.65;;;8.27;;
23444;SDS011;11895;48.738;9.320;2023-02-28T11:26:34;14.02;;;8.07;;
23444;SDS011;11895;48.738;9.320;2023-02-28T11:29:11;10.90;;;7.88;;
23444;SDS011;11895;48.738;9.320;2023-02-28T11:34:59;12.65;;;7.78;;
23444;SDS011;11895;48.738;9.320;2023-02-28T11:37:31;13.77;;;8.57;;
23444;SDS011;11895;48.738;9.320;2023-02-28T11:39:59;10.68;;;7.70;;
23444;SDS011;11895;48.738;9.320;2023-02-28T11:42:43;13.90;;;7.65;;
23444;SDS011;11895;48.738;9.320;2023-02-28T11:51:19;13.02;;;7.85;;
23444;SDS011;11895;48.738;9.320;2023-02-28T11:53:57;12.02;;;7.95;;
23444;SDS011;11895;48.738;9.320;2023-02-28T12:11:02;12.23;;;7.80;;
23444;SDS011;11895;48.738;9.320;2023-02-28T12:17:04;13.15;;;8.18;;
23444;SDS011;11895;48.738;9.320;2023-02-28T12:19:53;13.52;;;7.95;;
23444;SDS011;11895;48.738;9.320;2023-02-28T12:30:58;15.90;;;7.60;;
23444;SDS011;11895;48.738;9.320;2023-02-28T12:33:52;10.52;;;7.50;;
23444;SDS011;11895;48.738;9.320;2023-02-28T12:36:27;13.40;;;7.63;;
23444;SDS011;11895;48.738;9.320;2023-02-28T12:38:56;11.98;;;7.07;;
23444;SDS011;11895;48.738;9.320;2023-02-28T12:44:30;10.98;;;7.43;;
23444;SDS011;11895;48.738;9.320;2023-02-28T12:47:22;14.77;;;7.45;;
23444;SDS011;11895;48.738;9.320;2023-02-28T12:52:37;13.60;;;7.30;;
23444;SDS011;11895;48.738;9.320;2023-02-28T12:58:28;10.95;;;7.50;;
23444;SDS011;11895;48.738;9.320;2023-02-28T13:04:14;10.52;;;7.40;;
23444;SDS011;11895;48.738;9.320;2023-02-28T13:10:16;11.27;;;7.53;;
23444;SDS011;11895;48.738;9.320;2023-02-28T13:12:51;11.80;;;6.88;;
23444;SDS011;11895;48.738;9.320;2023-02-28T13:15:25;9.73;;;6.75;;
23444;SDS011;11895;48.738;9.320;2023-02-28T13:18:01;9.38;;;6.78;;
23444;SDS011;11895;48.738;9.320;2023-02-28T13:20:34;11.88;;;7.43;;
23444;SDS011;11895;48.738;9.320;2023-02-28T13:23:03;10.20;;;7.10;;
23444;SDS011;11895;48.738;9.320;2023-02-28T13:26:22;13.15;;;6.78;;
23444;SDS011;11895;48.738;9.320;2023-02-28T13:31:31;11.43;;;7.13;;
23444;SDS011;11895;48.738;9.320;2023-02-28T13:36:39;10.23;;;7.32;;
23444;SDS011;11895;48.738;9.320;2023-02-28T13:50:20;12.20;;;7.32;;
23444;SDS011;11895;48.738;9.320;2023-02-28T14:05:05;12.25;;;7.22;;
23444;SDS011;11895;48.738;9.320;2023-02-28T14:07:45;17.92;;;7.25;;
23444;SDS011;11895;48.738;9.320;2023-02-28T14:10:24;11.93;;;7.22;;
23444;SDS011;11895;48.738;9.320;2023-02-28T14:16:13;9.15;;;6.70;;
23444;SDS011;11895;48.738;9.320;2023-02-28T14:18:56;10.10;;;6.57;;
23444;SDS011;11895;48.738;9.320;2023-02-28T14:21:36;10.35;;;6.93;;
23444;SDS011;11895;48.738;9.320;2023-02-28T14:36:33;12.68;;;6.63;;
23444;SDS011;11895;48.738;9.320;2023-02-28T14:39:11;10.38;;;6.63;;
23444;SDS011;11895;48.738;9.320;2023-02-28T14:41:46;10.50;;;7.43;;
23444;SDS011;11895;48.738;9.320;2023-02-28T14:44:15;9.23;;;6.70;;
23444;SDS011;11895;48.738;9.320;2023-02-28T14:47:02;9.60;;;6.82;;
23444;SDS011;11895;48.738;9.320;2023-02-28T14:49:36;10.63;;;7.10;;
23444;SDS011;11895;48.738;9.320;2023-02-28T14:52:14;8.80;;;6.57;;
23444;SDS011;11895;48.738;9.320;2023-02-28T14:55:23;9.35;;;6.78;;
23444;SDS011;11895;48.738;9.320;2023-02-28T14:57:53;9.60;;;6.40;;
23444;SDS011;11895;48.738;9.320;2023-02-28T15:00:33;8.50;;;6.57;;
23444;SDS011;11895;48.738;9.320;2023-02-28T15:03:20;13.88;;;7.68;;
23444;SDS011;11895;48.738;9.320;2023-02-28T15:08:29;10.75;;;7.13;;
23444;SDS011;11895;48.738;9.320;2023-02-28T15:11:03;10.07;;;7.47;;
23444;SDS011;11895;48.738;9.320;2023-02-28T15:13:49;8.88;;;7.18;;
23444;SDS011;11895;48.738;9.320;2023-02-28T15:16:36;12.50;;;7.75;;
23444;SDS011;11895;48.738;9.320;2023-02-28T15:19:18;11.85;;;7.70;;
23444;SDS011;11895;48.738;9.320;2023-02-28T15:22:06;10.40;;;6.88;;
23444;SDS011;11895;48.738;9.320;2023-02-28T15:24:45;10.73;;;7.55;;
23444;SDS011;11895;48.738;9.320;2023-02-28T15:27:24;12.98;;;8.02;;
23444;SDS011;11895;48.738;9.320;2023-02-28T15:30:08;12.65;;;7.28;;
23444;SDS011;11895;48.738;9.320;2023-02-28T15:36:03;11.90;;;7.70;;
23444;SDS011;11895;48.738;9.320;2023-02-28T15:38:51;11.80;;;7.38;;
23444;SDS011;11895;48.738;9.320;2023-02-28T15:41:25;9.80;;;6.90;;
23444;SDS011;11895;48.738;9.320;2023-02-28T15:50:15;14.43;;;8.50;;
23444;SDS011;11895;48.738;9.320;2023-02-28T15:52:43;12.15;;;7.30;;
23444;SDS011;11895;48.738;9.320;2023-02-28T15:55:19;22.25;;;10.73;;
23444;SDS011;11895;48.738;9.320;2023-02-28T15:57:51;10.30;;;7.50;;
23444;SDS011;11895;48.738;9.320;2023-02-28T16:00:28;14.30;;;8.40;;
23444;SDS011;11895;48.738;9.320;2023-02-28T16:02:59;10.85;;;7.57;;
23444;SDS011;11895;48.738;9.320;2023-02-28T16:05:27;13.43;;;7.85;;
23444;SDS011;11895;48.738;9.320;2023-02-28T16:07:59;10.82;;;7.88;;
23444;SDS011;11895;48.738;9.320;2023-02-28T16:10:40;13.20;;;8.15;;
23444;SDS011;11895;48.738;9.320;2023-02-28T16:13:08;14.18;;;8.48;;
23444;SDS011;11895;48.738;9.320;2023-02-28T16:15:42;10.73;;;6.70;;
23444;SDS011;11895;48.738;9.320;2023-02-28T16:18:11;10.15;;;7.57;;
23444;SDS011;11895;48.738;9.320;2023-02-28T16:20:40;11.65;;;8.65;;
23444;SDS011;11895;48.738;9.320;2023-02-28T16:23:07;11.25;;;7.82;;
23444;SDS011;11895;48.738;9.320;2023-02-28T16:28:25;19.45;;;10.27;;
23444;SDS011;11895;48.738;9.320;2023-02-28T16:30:59;19.33;;;10.50;;
23444;SDS011;11895;48.738;9.320;2023-02-28T16:33:32;13.43;;;9.15;;
23444;SDS011;11895;48.738;9.320;2023-02-28T16:36:00;14.05;;;9.48;;
23444;SDS011;11895;48.738;9.320;2023-02-28T16:38:29;15.18;;;8.80;;
23444;SDS011;11895;48.738;9.320;2023-02-28T16:40:57;12.30;;;8.48;;
23444;SDS011;11895;48.738;9.320;2023-02-28T16:43:26;13.45;;;8.13;;
23444;SDS011;11895;48.738;9.320;2023-02-28T16:45:55;16.33;;;8.55;;
23444;SDS011;11895;48.738;9.320;2023-02-28T16:48:26;13.93;;;8.88;;
23444;SDS011;11895;48.738;9.320;2023-02-28T16:50:57;12.55;;;9.13;;
23444;SDS011;11895;48.738;9.320;2023-02-28T16:53:24;14.23;;;8.98;;
23444;SDS011;11895;48.738;9.320;2023-02-28T16:55:52;12.77;;;8.45;;
23444;SDS011;11895;48.738;9.320;2023-02-28T16:58:20;13.63;;;9.15;;
23444;SDS011;11895;48.738;9.320;2023-02-28T17:00:51;15.07;;;8.75;;
23444;SDS011;11895;48.738;9.320;2023-02-28T17:03:23;12.73;;;8.68;;
23444;SDS011;11895;48.738;9.320;2023-02-28T17:05:59;15.15;;;8.98;;
23444;SDS011;11895;48.738;9.320;2023-02-28T17:08:27;15.32;;;9.68;;
23444;SDS011;11895;48.738;9.320;2023-02-28T17:10:58;18.20;;;9.40;;
23444;SDS011;11895;48.738;9.320;2023-02-28T17:13:27;15.20;;;9.25;;
23444;SDS011;11895;48.738;9.320;2023-02-28T17:15:55;15.43;;;9.50;;
23444;SDS011;11895;48.738;9.320;2023-02-28T17:18:23;15.27;;;10.02;;
23444;SDS011;11895;48.738;9.320;2023-02-28T17:20:50;18.50;;;10.32;;
23444;SDS011;11895;48.738;9.320;2023-02-28T17:23:18;21.75;;;12.50;;
23444;SDS011;11895;48.738;9.320;2023-02-28T17:25:46;24.50;;;13.23;;
23444;SDS011;11895;48.738;9.320;2023-02-28T17:28:23;24.48;;;12.98;;
23444;SDS011;11895;48.738;9.320;2023-02-28T17:30:50;16.35;;;9.90;;
23444;SDS011;11895;48.738;9.320;2023-02-28T17:33:18;14.07;;;9.90;;
23444;SDS011;11895;48.738;9.320;2023-02-28T17:35:46;16.08;;;10.10;;
23444;SDS011;11895;48.738;9.320;2023-02-28T17:38:15;15.88;;;9.80;;
23444;SDS011;11895;48.738;9.320;2023-02-28T17:40:45;17.38;;;10.30;;
23444;SDS011;11895;48.738;9.320;2023-02-28T17:43:13;16.83;;;10.35;;
23444;SDS011;11895;48.738;9.320;2023-02-28T17:45:41;13.85;;;9.32;;
23444;SDS011;11895;48.738;9.320;2023-02-28T17:48:09;17.05;;;10.70;;
23444;SDS011;11895;48.738;9.320;2023-02-28T17:50:38;14.38;;;9.95;;
23444;SDS011;11895;48.738;9.320;2023-02-28T17:53:06;24.33;;;10.80;;
23444;SDS011;11895;48.738;9.320;2023-02-28T17:55:34;15.07;;;9.60;;
23444;SDS011;11895;48.738;9.320;2023-02-28T17:58:02;18.60;;;10.27;;
23444;SDS011;11895;48.738;9.320;2023-02-28T18:00:30;16.47;;;10.40;;
23444;SDS011;11895;48.738;9.320;2023-02-28T18:03:01;22.27;;;10.43;;
23444;SDS011;11895;48.738;9.320;2023-02-28T18:05:29;21.77;;;10.93;;
23444;SDS011;11895;48.738;9.320;2023-02-28T18:07:57;20.45;;;12.20;;
23444;SDS011;11895;48.738;9.320;2023-02-28T18:10:25;22.58;;;12.00;;
23444;SDS011;11895;48.738;9.320;2023-02-28T18:12:53;21.15;;;12.00;;
23444;SDS011;11895;48.738;9.320;2023-02-28T18:15:21;20.10;;;12.02;;
23444;SDS011;11895;48.738;9.320;2023-02-28T18:17:49;17.87;;;10.63;;
23444;SDS011;11895;48.738;9.320;2023-02-28T18:20:17;16.98;;;11.05;;
23444;SDS011;11895;48.738;9.320;2023-02-28T18:22:45;19.67;;;10.82;;
23444;SDS011;11895;48.738;9.320;2023-02-28T18:25:13;23.42;;;12.40;;